sensor_id;sensor_type;location;lat;lon;timestamp;P1;durP1;ratioP1;P2;durP2;ratioP2
81160;SDS011;70637;48.514;14.500;2024-02-26T00:01:51;4.63;;;2.20;;
81160;SDS011;70637;48.514;14.500;2024-02-26T00:04:17;4.47;;;2.00;;
81160;SDS011;70637;48.514;14.500;2024-02-26T00:06:43;3.67;;;1.95;;
81160;SDS011;70637;48.514;14.500;2024-02-26T00:09:09;4.88;;;2.25;;
81160;SDS011;70637;48.514;14.500;2024-02-26T00:11:35;3.00;;;1.90;;
81160;SDS011;70637;48.514;14.500;2024-02-26T00:14:02;4.47;;;1.92;;
81160;SDS011;70637;48.514;14.500;2024-02-26T00:16:28;4.55;;;2.10;;
81160;SDS011;70637;48.514;14.500;2024-02-26T00:18:53;4.57;;;2.10;;
81160;SDS011;70637;48.514;14.500;2024-02-26T00:21:19;4.70;;;2.00;;
81160;SDS011;70637;48.514;14.500;2024-02-26T00:23:45;4.57;;;2.10;;
81160;SDS011;70637;48.514;14.500;2024-02-26T00:26:10;5.22;;;2.17;;
81160;SDS011;70637;48.514;14.500;2024-02-26T00:28:36;4.05;;;2.22;;
81160;SDS011;70637;48.514;14.500;2024-02-26T00:31:02;4.45;;;2.08;;
81160;SDS011;70637;48.514;14.500;2024-02-26T00:33:28;4.68;;;2.15;;
81160;SDS011;70637;48.514;14.500;2024-02-26T00:35:54;3.45;;;1.85;;
81160;SDS011;70637;48.514;14.500;2024-02-26T00:38:19;5.07;;;2.08;;
81160;SDS011;70637;48.514;14.500;2024-02-26T00:40:45;3.75;;;2.08;;
81160;SDS011;70637;48.514;14.500;2024-02-26T00:43:11;5.68;;;2.03;;
81160;SDS011;70637;48.514;14.500;2024-02-26T00:45:37;3.70;;;2.03;;
81160;SDS011;70637;48.514;14.500;2024-02-26T00:48:03;5.03;;;2.38;;
81160;SDS011;70637;48.514;14.500;2024-02-26T00:50:32;2.85;;;1.60;;
81160;SDS011;70637;48.514;14.500;2024-02-26T00:52:58;3.88;;;1.92;;
81160;SDS011;70637;48.514;14.500;2024-02-26T00:55:24;3.83;;;1.85;;
81160;SDS011;70637;48.514;14.500;2024-02-26T00:57:50;3.88;;;1.98;;
81160;SDS011;70637;48.514;14.500;2024-02-26T01:00:16;4.03;;;2.22;;
81160;SDS011;70637;48.514;14.500;2024-02-26T01:02:42;3.55;;;1.80;;
81160;SDS011;70637;48.514;14.500;2024-02-26T01:05:08;3.35;;;2.00;;
81160;SDS011;70637;48.514;14.500;2024-02-26T01:07:36;2.72;;;1.88;;
81160;SDS011;70637;48.514;14.500;2024-02-26T01:10:02;3.63;;;2.03;;
81160;SDS011;70637;48.514;14.500;2024-02-26T01:12:28;2.88;;;1.80;;
81160;SDS011;70637;48.514;14.500;2024-02-26T01:14:54;3.17;;;1.90;;
81160;SDS011;70637;48.514;14.500;2024-02-26T01:17:20;4.07;;;2.03;;
81160;SDS011;70637;48.514;14.500;2024-02-26T01:19:46;3.85;;;1.80;;
81160;SDS011;70637;48.514;14.500;2024-02-26T01:22:11;3.38;;;1.80;;
81160;SDS011;70637;48.514;14.500;2024-02-26T01:24:37;4.03;;;1.75;;
81160;SDS011;70637;48.514;14.500;2024-02-26T01:27:03;3.83;;;1.67;;
81160;SDS011;70637;48.514;14.500;2024-02-26T01:29:29;3.60;;;1.70;;
81160;SDS011;70637;48.514;14.500;2024-02-26T01:31:54;3.13;;;1.80;;
81160;SDS011;70637;48.514;14.500;2024-02-26T01:34:20;2.55;;;1.80;;
81160;SDS011;70637;48.514;14.500;2024-02-26T01:36:46;2.63;;;1.50;;
81160;SDS011;70637;48.514;14.500;2024-02-26T01:39:12;2.85;;;1.60;;
81160;SDS011;70637;48.514;14.500;2024-02-26T01:41:38;3.10;;;1.60;;
81160;SDS011;70637;48.514;14.500;2024-02-26T01:44:05;3.85;;;1.80;;
81160;SDS011;70637;48.514;14.500;2024-02-26T01:46:31;3.15;;;1.77;;
81160;SDS011;70637;48.514;14.500;2024-02-26T01:48:59;3.45;;;1.67;;
81160;SDS011;70637;48.514;14.500;2024-02-26T01:51:26;3.03;;;1.80;;
81160;SDS011;70637;48.514;14.500;2024-02-26T01:53:52;2.97;;;1.70;;
81160;SDS011;70637;48.514;14.500;2024-02-26T01:56:18;3.67;;;1.95;;
81160;SDS011;70637;48.514;14.500;2024-02-26T01:58:46;2.50;;;1.55;;
81160;SDS011;70637;48.514;14.500;2024-02-26T02:01:13;2.78;;;1.70;;
81160;SDS011;70637;48.514;14.500;2024-02-26T02:03:41;3.80;;;2.00;;
81160;SDS011;70637;48.514;14.500;2024-02-26T02:06:08;2.63;;;1.75;;
81160;SDS011;70637;48.514;14.500;2024-02-26T02:08:34;2.10;;;1.50;;
81160;SDS011;70637;48.514;14.500;2024-02-26T02:11:00;2.92;;;1.60;;
81160;SDS011;70637;48.514;14.500;2024-02-26T02:13:27;2.28;;;1.60;;
81160;SDS011;70637;48.514;14.500;2024-02-26T02:15:52;2.67;;;1.63;;
81160;SDS011;70637;48.514;14.500;2024-02-26T02:18:18;4.10;;;1.80;;
81160;SDS011;70637;48.514;14.500;2024-02-26T02:20:44;3.47;;;1.63;;
81160;SDS011;70637;48.514;14.500;2024-02-26T02:23:10;3.50;;;1.80;;
81160;SDS011;70637;48.514;14.500;2024-02-26T02:25:36;2.80;;;1.80;;
81160;SDS011;70637;48.514;14.500;2024-02-26T02:28:01;3.28;;;1.63;;
81160;SDS011;70637;48.514;14.500;2024-02-26T02:30:29;4.03;;;1.88;;
81160;SDS011;70637;48.514;14.500;2024-02-26T02:32:55;2.60;;;1.58;;
81160;SDS011;70637;48.514;14.500;2024-02-26T02:35:23;2.78;;;1.40;;
81160;SDS011;70637;48.514;14.500;2024-02-26T02:37:50;3.00;;;1.75;;
81160;SDS011;70637;48.514;14.500;2024-02-26T02:40:21;3.05;;;1.63;;
81160;SDS011;70637;48.514;14.500;2024-02-26T02:42:47;2.72;;;1.63;;
81160;SDS011;70637;48.514;14.500;2024-02-26T02:45:12;2.03;;;1.55;;
81160;SDS011;70637;48.514;14.500;2024-02-26T02:47:38;3.03;;;1.70;;
81160;SDS011;70637;48.514;14.500;2024-02-26T02:50:04;4.00;;;1.80;;
81160;SDS011;70637;48.514;14.500;2024-02-26T02:52:30;2.22;;;1.50;;
81160;SDS011;70637;48.514;14.500;2024-02-26T02:54:55;2.08;;;1.40;;
81160;SDS011;70637;48.514;14.500;2024-02-26T02:57:21;2.65;;;1.35;;
81160;SDS011;70637;48.514;14.500;2024-02-26T02:59:47;2.47;;;1.48;;
81160;SDS011;70637;48.514;14.500;2024-02-26T03:02:13;2.38;;;1.30;;
81160;SDS011;70637;48.514;14.500;2024-02-26T03:04:38;2.90;;;1.70;;
81160;SDS011;70637;48.514;14.500;2024-02-26T03:07:04;1.98;;;1.45;;
81160;SDS011;70637;48.514;14.500;2024-02-26T03:09:29;2.97;;;1.50;;
81160;SDS011;70637;48.514;14.500;2024-02-26T03:11:55;2.67;;;1.50;;
81160;SDS011;70637;48.514;14.500;2024-02-26T03:14:21;3.10;;;1.30;;
81160;SDS011;70637;48.514;14.500;2024-02-26T03:16:46;2.75;;;1.60;;
81160;SDS011;70637;48.514;14.500;2024-02-26T03:19:15;2.60;;;1.52;;
81160;SDS011;70637;48.514;14.500;2024-02-26T03:21:43;3.38;;;1.48;;
81160;SDS011;70637;48.514;14.500;2024-02-26T03:24:09;3.10;;;1.50;;
81160;SDS011;70637;48.514;14.500;2024-02-26T03:26:35;1.92;;;1.38;;
81160;SDS011;70637;48.514;14.500;2024-02-26T03:29:01;2.95;;;1.50;;
81160;SDS011;70637;48.514;14.500;2024-02-26T03:31:28;3.22;;;1.42;;
81160;SDS011;70637;48.514;14.500;2024-02-26T03:33:53;2.65;;;1.60;;
81160;SDS011;70637;48.514;14.500;2024-02-26T03:36:19;2.25;;;1.33;;
81160;SDS011;70637;48.514;14.500;2024-02-26T03:38:46;2.03;;;1.50;;
81160;SDS011;70637;48.514;14.500;2024-02-26T03:41:13;2.17;;;1.35;;
81160;SDS011;70637;48.514;14.500;2024-02-26T03:43:38;2.15;;;1.40;;
81160;SDS011;70637;48.514;14.500;2024-02-26T03:46:07;1.75;;;1.42;;
81160;SDS011;70637;48.514;14.500;2024-02-26T03:48:34;2.55;;;1.40;;
81160;SDS011;70637;48.514;14.500;2024-02-26T03:51:00;1.95;;;1.20;;
81160;SDS011;70637;48.514;14.500;2024-02-26T03:53:25;3.78;;;1.50;;
81160;SDS011;70637;48.514;14.500;2024-02-26T03:55:51;1.85;;;1.17;;
81160;SDS011;70637;48.514;14.500;2024-02-26T03:58:17;2.15;;;1.40;;
81160;SDS011;70637;48.514;14.500;2024-02-26T04:00:43;1.55;;;1.20;;
81160;SDS011;70637;48.514;14.500;2024-02-26T04:03:09;2.85;;;1.45;;
81160;SDS011;70637;48.514;14.500;2024-02-26T04:05:35;2.63;;;1.30;;
81160;SDS011;70637;48.514;14.500;2024-02-26T04:08:01;2.10;;;1.33;;
81160;SDS011;70637;48.514;14.500;2024-02-26T04:10:27;3.00;;;1.63;;
81160;SDS011;70637;48.514;14.500;2024-02-26T04:12:53;1.85;;;1.20;;
81160;SDS011;70637;48.514;14.500;2024-02-26T04:15:18;2.10;;;1.40;;
81160;SDS011;70637;48.514;14.500;2024-02-26T04:17:45;1.73;;;1.20;;
81160;SDS011;70637;48.514;14.500;2024-02-26T04:20:14;2.25;;;1.25;;
81160;SDS011;70637;48.514;14.500;2024-02-26T04:22:41;3.10;;;1.60;;
81160;SDS011;70637;48.514;14.500;2024-02-26T04:25:07;2.97;;;1.40;;
81160;SDS011;70637;48.514;14.500;2024-02-26T04:27:33;2.15;;;1.30;;
81160;SDS011;70637;48.514;14.500;2024-02-26T04:29:59;1.50;;;1.10;;
81160;SDS011;70637;48.514;14.500;2024-02-26T04:32:24;3.22;;;1.58;;
81160;SDS011;70637;48.514;14.500;2024-02-26T04:34:53;2.63;;;1.20;;
81160;SDS011;70637;48.514;14.500;2024-02-26T04:37:19;1.98;;;1.30;;
81160;SDS011;70637;48.514;14.500;2024-02-26T04:39:45;1.95;;;1.25;;
81160;SDS011;70637;48.514;14.500;2024-02-26T04:42:10;1.17;;;1.00;;
81160;SDS011;70637;48.514;14.500;2024-02-26T04:44:36;2.47;;;1.25;;
81160;SDS011;70637;48.514;14.500;2024-02-26T04:47:02;1.83;;;1.20;;
81160;SDS011;70637;48.514;14.500;2024-02-26T04:49:27;1.90;;;1.10;;
81160;SDS011;70637;48.514;14.500;2024-02-26T04:51:53;1.70;;;1.20;;
81160;SDS011;70637;48.514;14.500;2024-02-26T04:54:19;3.40;;;1.35;;
81160;SDS011;70637;48.514;14.500;2024-02-26T04:56:45;1.90;;;1.30;;
81160;SDS011;70637;48.514;14.500;2024-02-26T04:59:11;3.53;;;1.20;;
81160;SDS011;70637;48.514;14.500;2024-02-26T05:01:37;2.08;;;1.17;;
81160;SDS011;70637;48.514;14.500;2024-02-26T05:04:02;2.35;;;1.20;;
81160;SDS011;70637;48.514;14.500;2024-02-26T05:06:28;1.55;;;1.05;;
81160;SDS011;70637;48.514;14.500;2024-02-26T05:08:54;2.15;;;1.30;;
81160;SDS011;70637;48.514;14.500;2024-02-26T05:11:20;3.83;;;1.20;;
81160;SDS011;70637;48.514;14.500;2024-02-26T05:13:45;1.92;;;1.30;;
81160;SDS011;70637;48.514;14.500;2024-02-26T05:16:12;1.80;;;1.20;;
81160;SDS011;70637;48.514;14.500;2024-02-26T05:18:38;1.27;;;1.10;;
81160;SDS011;70637;48.514;14.500;2024-02-26T05:21:03;3.95;;;1.30;;
81160;SDS011;70637;48.514;14.500;2024-02-26T05:23:29;1.92;;;1.10;;
81160;SDS011;70637;48.514;14.500;2024-02-26T05:25:56;2.65;;;1.30;;
81160;SDS011;70637;48.514;14.500;2024-02-26T05:28:21;1.90;;;1.08;;
81160;SDS011;70637;48.514;14.500;2024-02-26T05:30:47;1.55;;;1.08;;
81160;SDS011;70637;48.514;14.500;2024-02-26T05:33:13;1.55;;;1.10;;
81160;SDS011;70637;48.514;14.500;2024-02-26T05:35:39;2.13;;;1.20;;
81160;SDS011;70637;48.514;14.500;2024-02-26T05:38:05;1.65;;;1.20;;
81160;SDS011;70637;48.514;14.500;2024-02-26T05:40:31;1.92;;;1.25;;
81160;SDS011;70637;48.514;14.500;2024-02-26T05:42:56;1.98;;;1.20;;
81160;SDS011;70637;48.514;14.500;2024-02-26T05:45:22;2.30;;;1.23;;
81160;SDS011;70637;48.514;14.500;2024-02-26T05:47:48;2.00;;;1.27;;
81160;SDS011;70637;48.514;14.500;2024-02-26T05:50:14;3.58;;;1.13;;
81160;SDS011;70637;48.514;14.500;2024-02-26T05:52:40;3.60;;;1.30;;
81160;SDS011;70637;48.514;14.500;2024-02-26T05:55:06;5.13;;;1.23;;
81160;SDS011;70637;48.514;14.500;2024-02-26T05:57:35;4.57;;;1.33;;
81160;SDS011;70637;48.514;14.500;2024-02-26T06:00:01;4.55;;;1.30;;
81160;SDS011;70637;48.514;14.500;2024-02-26T06:02:30;4.03;;;1.30;;
81160;SDS011;70637;48.514;14.500;2024-02-26T06:04:56;5.38;;;1.55;;
81160;SDS011;70637;48.514;14.500;2024-02-26T06:07:22;7.43;;;1.67;;
81160;SDS011;70637;48.514;14.500;2024-02-26T06:09:48;12.80;;;3.38;;
81160;SDS011;70637;48.514;14.500;2024-02-26T06:12:14;22.85;;;5.25;;
81160;SDS011;70637;48.514;14.500;2024-02-26T06:14:39;28.52;;;5.68;;
81160;SDS011;70637;48.514;14.500;2024-02-26T06:17:06;26.90;;;5.30;;
81160;SDS011;70637;48.514;14.500;2024-02-26T06:19:32;21.08;;;4.70;;
81160;SDS011;70637;48.514;14.500;2024-02-26T06:21:57;19.05;;;4.18;;
81160;SDS011;70637;48.514;14.500;2024-02-26T06:24:23;19.02;;;4.07;;
81160;SDS011;70637;48.514;14.500;2024-02-26T06:26:49;17.83;;;3.80;;
81160;SDS011;70637;48.514;14.500;2024-02-26T06:29:14;20.33;;;4.18;;
81160;SDS011;70637;48.514;14.500;2024-02-26T06:31:40;17.27;;;3.45;;
81160;SDS011;70637;48.514;14.500;2024-02-26T06:34:06;20.38;;;3.38;;
81160;SDS011;70637;48.514;14.500;2024-02-26T06:36:31;13.05;;;3.28;;
81160;SDS011;70637;48.514;14.500;2024-02-26T06:38:57;9.07;;;2.80;;
81160;SDS011;70637;48.514;14.500;2024-02-26T06:41:23;11.20;;;2.83;;
81160;SDS011;70637;48.514;14.500;2024-02-26T06:43:56;11.43;;;2.90;;
81160;SDS011;70637;48.514;14.500;2024-02-26T06:46:22;8.25;;;2.80;;
81160;SDS011;70637;48.514;14.500;2024-02-26T06:48:48;13.82;;;2.92;;
81160;SDS011;70637;48.514;14.500;2024-02-26T06:51:14;11.00;;;2.60;;
81160;SDS011;70637;48.514;14.500;2024-02-26T06:53:40;11.48;;;2.97;;
81160;SDS011;70637;48.514;14.500;2024-02-26T06:56:05;13.57;;;2.35;;
81160;SDS011;70637;48.514;14.500;2024-02-26T06:58:31;9.75;;;2.30;;
81160;SDS011;70637;48.514;14.500;2024-02-26T07:00:57;10.27;;;2.85;;
81160;SDS011;70637;48.514;14.500;2024-02-26T07:03:22;8.32;;;2.63;;
81160;SDS011;70637;48.514;14.500;2024-02-26T07:05:49;12.93;;;3.03;;
81160;SDS011;70637;48.514;14.500;2024-02-26T07:08:15;7.47;;;2.70;;
81160;SDS011;70637;48.514;14.500;2024-02-26T07:10:41;5.32;;;2.47;;
81160;SDS011;70637;48.514;14.500;2024-02-26T07:13:06;5.88;;;2.28;;
81160;SDS011;70637;48.514;14.500;2024-02-26T07:15:32;6.90;;;2.50;;
81160;SDS011;70637;48.514;14.500;2024-02-26T07:17:58;5.88;;;2.47;;
81160;SDS011;70637;48.514;14.500;2024-02-26T07:20:28;5.55;;;1.95;;
81160;SDS011;70637;48.514;14.500;2024-02-26T07:22:56;4.75;;;2.05;;
81160;SDS011;70637;48.514;14.500;2024-02-26T07:25:22;4.47;;;2.13;;
81160;SDS011;70637;48.514;14.500;2024-02-26T07:27:49;6.78;;;2.15;;
81160;SDS011;70637;48.514;14.500;2024-02-26T07:30:15;4.57;;;1.98;;
81160;SDS011;70637;48.514;14.500;2024-02-26T07:32:42;4.03;;;1.92;;
81160;SDS011;70637;48.514;14.500;2024-02-26T07:35:09;5.03;;;2.22;;
81160;SDS011;70637;48.514;14.500;2024-02-26T07:37:35;4.30;;;1.92;;
81160;SDS011;70637;48.514;14.500;2024-02-26T07:40:00;4.25;;;2.22;;
81160;SDS011;70637;48.514;14.500;2024-02-26T07:42:26;3.30;;;1.83;;
81160;SDS011;70637;48.514;14.500;2024-02-26T07:44:52;5.10;;;2.40;;
81160;SDS011;70637;48.514;14.500;2024-02-26T07:47:18;4.07;;;1.92;;
81160;SDS011;70637;48.514;14.500;2024-02-26T07:49:44;5.35;;;1.98;;
81160;SDS011;70637;48.514;14.500;2024-02-26T07:52:10;6.13;;;2.50;;
81160;SDS011;70637;48.514;14.500;2024-02-26T07:54:35;6.18;;;2.15;;
81160;SDS011;70637;48.514;14.500;2024-02-26T07:57:01;5.15;;;2.30;;
81160;SDS011;70637;48.514;14.500;2024-02-26T07:59:30;5.15;;;2.20;;
81160;SDS011;70637;48.514;14.500;2024-02-26T08:01:56;4.97;;;2.50;;
81160;SDS011;70637;48.514;14.500;2024-02-26T08:04:22;5.63;;;2.30;;
81160;SDS011;70637;48.514;14.500;2024-02-26T08:06:47;7.18;;;2.40;;
81160;SDS011;70637;48.514;14.500;2024-02-26T08:09:13;4.25;;;2.47;;
81160;SDS011;70637;48.514;14.500;2024-02-26T08:11:39;8.73;;;2.88;;
81160;SDS011;70637;48.514;14.500;2024-02-26T08:14:05;6.28;;;2.60;;
81160;SDS011;70637;48.514;14.500;2024-02-26T08:16:30;6.30;;;2.65;;
81160;SDS011;70637;48.514;14.500;2024-02-26T08:18:56;6.00;;;2.85;;
81160;SDS011;70637;48.514;14.500;2024-02-26T08:21:21;7.45;;;2.83;;
81160;SDS011;70637;48.514;14.500;2024-02-26T08:23:48;6.80;;;3.08;;
81160;SDS011;70637;48.514;14.500;2024-02-26T08:26:14;6.82;;;2.78;;
81160;SDS011;70637;48.514;14.500;2024-02-26T08:28:40;7.57;;;2.90;;
81160;SDS011;70637;48.514;14.500;2024-02-26T08:31:05;6.93;;;2.70;;
81160;SDS011;70637;48.514;14.500;2024-02-26T08:33:31;4.78;;;2.13;;
81160;SDS011;70637;48.514;14.500;2024-02-26T08:35:59;4.65;;;2.70;;
81160;SDS011;70637;48.514;14.500;2024-02-26T08:38:24;6.22;;;2.75;;
81160;SDS011;70637;48.514;14.500;2024-02-26T08:40:50;7.57;;;2.83;;
81160;SDS011;70637;48.514;14.500;2024-02-26T08:43:16;6.63;;;2.50;;
81160;SDS011;70637;48.514;14.500;2024-02-26T08:45:42;5.97;;;3.28;;
81160;SDS011;70637;48.514;14.500;2024-02-26T08:48:08;6.68;;;2.60;;
81160;SDS011;70637;48.514;14.500;2024-02-26T08:50:33;5.55;;;2.33;;
81160;SDS011;70637;48.514;14.500;2024-02-26T08:52:59;4.97;;;2.55;;
81160;SDS011;70637;48.514;14.500;2024-02-26T08:55:26;6.93;;;2.97;;
81160;SDS011;70637;48.514;14.500;2024-02-26T08:57:52;6.72;;;2.42;;
81160;SDS011;70637;48.514;14.500;2024-02-26T09:00:17;4.88;;;2.55;;
81160;SDS011;70637;48.514;14.500;2024-02-26T09:02:45;7.18;;;3.00;;
81160;SDS011;70637;48.514;14.500;2024-02-26T09:05:12;8.30;;;2.72;;
81160;SDS011;70637;48.514;14.500;2024-02-26T09:07:38;5.75;;;2.70;;
81160;SDS011;70637;48.514;14.500;2024-02-26T09:10:04;5.65;;;2.50;;
81160;SDS011;70637;48.514;14.500;2024-02-26T09:12:30;6.32;;;2.38;;
81160;SDS011;70637;48.514;14.500;2024-02-26T09:14:56;6.53;;;2.67;;
81160;SDS011;70637;48.514;14.500;2024-02-26T09:17:22;7.30;;;2.63;;
81160;SDS011;70637;48.514;14.500;2024-02-26T09:19:48;6.95;;;2.95;;
81160;SDS011;70637;48.514;14.500;2024-02-26T09:22:14;6.80;;;2.83;;
81160;SDS011;70637;48.514;14.500;2024-02-26T09:24:39;6.80;;;2.88;;
81160;SDS011;70637;48.514;14.500;2024-02-26T09:27:05;5.80;;;2.67;;
81160;SDS011;70637;48.514;14.500;2024-02-26T09:29:31;4.88;;;2.55;;
81160;SDS011;70637;48.514;14.500;2024-02-26T09:31:57;6.35;;;2.63;;
81160;SDS011;70637;48.514;14.500;2024-02-26T09:34:23;5.80;;;2.60;;
81160;SDS011;70637;48.514;14.500;2024-02-26T09:36:49;8.40;;;2.80;;
81160;SDS011;70637;48.514;14.500;2024-02-26T09:39:14;8.55;;;2.50;;
81160;SDS011;70637;48.514;14.500;2024-02-26T09:41:45;6.05;;;2.13;;
81160;SDS011;70637;48.514;14.500;2024-02-26T09:44:11;6.07;;;2.00;;
81160;SDS011;70637;48.514;14.500;2024-02-26T09:46:47;4.53;;;1.98;;
81160;SDS011;70637;48.514;14.500;2024-02-26T09:49:18;7.97;;;1.77;;
81160;SDS011;70637;48.514;14.500;2024-02-26T09:51:47;2.70;;;1.58;;
81160;SDS011;70637;48.514;14.500;2024-02-26T09:54:15;4.60;;;1.45;;
81160;SDS011;70637;48.514;14.500;2024-02-26T09:56:41;3.95;;;1.80;;
81160;SDS011;70637;48.514;14.500;2024-02-26T09:59:10;3.97;;;1.50;;
81160;SDS011;70637;48.514;14.500;2024-02-26T10:01:38;7.03;;;1.70;;
81160;SDS011;70637;48.514;14.500;2024-02-26T10:04:07;5.32;;;1.50;;
81160;SDS011;70637;48.514;14.500;2024-02-26T10:06:35;3.05;;;1.50;;
81160;SDS011;70637;48.514;14.500;2024-02-26T10:09:02;12.55;;;2.40;;
81160;SDS011;70637;48.514;14.500;2024-02-26T10:11:31;3.97;;;1.42;;
81160;SDS011;70637;48.514;14.500;2024-02-26T10:13:57;2.88;;;1.50;;
81160;SDS011;70637;48.514;14.500;2024-02-26T10:16:24;5.53;;;1.33;;
81160;SDS011;70637;48.514;14.500;2024-02-26T10:18:51;3.80;;;1.30;;
81160;SDS011;70637;48.514;14.500;2024-02-26T10:21:19;5.55;;;1.50;;
81160;SDS011;70637;48.514;14.500;2024-02-26T10:23:45;2.17;;;1.30;;
81160;SDS011;70637;48.514;14.500;2024-02-26T10:26:12;3.17;;;1.33;;
81160;SDS011;70637;48.514;14.500;2024-02-26T10:28:39;4.80;;;1.17;;
81160;SDS011;70637;48.514;14.500;2024-02-26T10:56:03;4.35;;;1.20;;
81160;SDS011;70637;48.514;14.500;2024-02-26T10:58:31;2.38;;;1.20;;
81160;SDS011;70637;48.514;14.500;2024-02-26T11:00:57;4.07;;;1.25;;
81160;SDS011;70637;48.514;14.500;2024-02-26T11:03:24;6.68;;;1.73;;
81160;SDS011;70637;48.514;14.500;2024-02-26T11:05:50;2.80;;;1.42;;
81160;SDS011;70637;48.514;14.500;2024-02-26T11:08:20;3.30;;;1.25;;
81160;SDS011;70637;48.514;14.500;2024-02-26T11:10:47;7.00;;;1.48;;
81160;SDS011;70637;48.514;14.500;2024-02-26T11:13:14;3.55;;;1.00;;
81160;SDS011;70637;48.514;14.500;2024-02-26T11:15:44;3.78;;;1.45;;
81160;SDS011;70637;48.514;14.500;2024-02-26T11:18:15;4.82;;;1.10;;
81160;SDS011;70637;48.514;14.500;2024-02-26T11:20:43;3.67;;;1.73;;
81160;SDS011;70637;48.514;14.500;2024-02-26T11:23:11;3.58;;;1.20;;
81160;SDS011;70637;48.514;14.500;2024-02-26T11:25:37;3.28;;;1.27;;
81160;SDS011;70637;48.514;14.500;2024-02-26T11:28:05;2.85;;;1.30;;
81160;SDS011;70637;48.514;14.500;2024-02-26T11:30:35;4.15;;;1.23;;
81160;SDS011;70637;48.514;14.500;2024-02-26T11:33:09;3.77;;;1.30;;
81160;SDS011;70637;48.514;14.500;2024-02-26T11:35:37;2.88;;;1.05;;
81160;SDS011;70637;48.514;14.500;2024-02-26T11:38:04;7.82;;;1.58;;
81160;SDS011;70637;48.514;14.500;2024-02-26T11:40:32;4.47;;;1.85;;
81160;SDS011;70637;48.514;14.500;2024-02-26T11:43:03;3.53;;;1.50;;
81160;SDS011;70637;48.514;14.500;2024-02-26T11:48:05;5.40;;;1.52;;
81160;SDS011;70637;48.514;14.500;2024-02-26T11:50:39;5.90;;;1.58;;
81160;SDS011;70637;48.514;14.500;2024-02-26T11:53:19;3.63;;;1.42;;
81160;SDS011;70637;48.514;14.500;2024-02-26T11:55:46;5.32;;;1.48;;
81160;SDS011;70637;48.514;14.500;2024-02-26T11:58:12;4.85;;;1.30;;
81160;SDS011;70637;48.514;14.500;2024-02-26T12:00:39;2.90;;;1.30;;
81160;SDS011;70637;48.514;14.500;2024-02-26T12:03:05;5.18;;;1.35;;
81160;SDS011;70637;48.514;14.500;2024-02-26T12:05:34;3.05;;;1.35;;
81160;SDS011;70637;48.514;14.500;2024-02-26T12:08:03;5.78;;;1.40;;
81160;SDS011;70637;48.514;14.500;2024-02-26T12:10:32;4.72;;;1.40;;
81160;SDS011;70637;48.514;14.500;2024-02-26T12:15:38;4.63;;;1.38;;
81160;SDS011;70637;48.514;14.500;2024-02-26T12:18:06;2.20;;;1.30;;
81160;SDS011;70637;48.514;14.500;2024-02-26T12:20:34;2.10;;;1.05;;
81160;SDS011;70637;48.514;14.500;2024-02-26T12:23:01;2.50;;;1.40;;
81160;SDS011;70637;48.514;14.500;2024-02-26T12:25:29;3.45;;;1.50;;
81160;SDS011;70637;48.514;14.500;2024-02-26T12:27:56;3.28;;;1.20;;
81160;SDS011;70637;48.514;14.500;2024-02-26T12:30:23;3.50;;;1.50;;
81160;SDS011;70637;48.514;14.500;2024-02-26T12:32:51;4.88;;;1.42;;
81160;SDS011;70637;48.514;14.500;2024-02-26T12:37:48;7.47;;;1.70;;
81160;SDS011;70637;48.514;14.500;2024-02-26T12:40:14;3.22;;;1.40;;
81160;SDS011;70637;48.514;14.500;2024-02-26T12:42:39;6.55;;;1.52;;
81160;SDS011;70637;48.514;14.500;2024-02-26T12:45:06;2.70;;;1.30;;
81160;SDS011;70637;48.514;14.500;2024-02-26T12:47:38;5.78;;;1.40;;
81160;SDS011;70637;48.514;14.500;2024-02-26T12:50:04;5.32;;;1.67;;
81160;SDS011;70637;48.514;14.500;2024-02-26T12:52:35;5.88;;;1.50;;
81160;SDS011;70637;48.514;14.500;2024-02-26T12:55:06;4.95;;;1.60;;
81160;SDS011;70637;48.514;14.500;2024-02-26T12:57:35;3.97;;;1.52;;
81160;SDS011;70637;48.514;14.500;2024-02-26T13:00:05;5.57;;;1.67;;
81160;SDS011;70637;48.514;14.500;2024-02-26T13:02:35;3.67;;;1.70;;
81160;SDS011;70637;48.514;14.500;2024-02-26T13:05:03;5.53;;;1.55;;
81160;SDS011;70637;48.514;14.500;2024-02-26T13:07:30;7.40;;;1.73;;
81160;SDS011;70637;48.514;14.500;2024-02-26T13:09:56;6.18;;;1.90;;
81160;SDS011;70637;48.514;14.500;2024-02-26T13:12:23;6.43;;;1.70;;
81160;SDS011;70637;48.514;14.500;2024-02-26T13:14:58;9.15;;;2.03;;
81160;SDS011;70637;48.514;14.500;2024-02-26T13:17:24;5.53;;;1.50;;
81160;SDS011;70637;48.514;14.500;2024-02-26T13:19:53;7.85;;;1.60;;
81160;SDS011;70637;48.514;14.500;2024-02-26T13:22:22;7.85;;;1.80;;
81160;SDS011;70637;48.514;14.500;2024-02-26T13:24:55;6.75;;;1.90;;
81160;SDS011;70637;48.514;14.500;2024-02-26T13:27:22;3.38;;;1.65;;
81160;SDS011;70637;48.514;14.500;2024-02-26T13:29:49;7.88;;;1.90;;
81160;SDS011;70637;48.514;14.500;2024-02-26T13:32:34;7.28;;;1.77;;
81160;SDS011;70637;48.514;14.500;2024-02-26T13:35:07;11.07;;;2.13;;
81160;SDS011;70637;48.514;14.500;2024-02-26T13:37:35;8.02;;;2.20;;
81160;SDS011;70637;48.514;14.500;2024-02-26T13:40:20;8.18;;;2.10;;
81160;SDS011;70637;48.514;14.500;2024-02-26T13:42:46;9.68;;;2.13;;
81160;SDS011;70637;48.514;14.500;2024-02-26T13:45:13;9.52;;;2.20;;
81160;SDS011;70637;48.514;14.500;2024-02-26T13:47:39;20.48;;;2.80;;
81160;SDS011;70637;48.514;14.500;2024-02-26T13:50:06;3.97;;;1.92;;
81160;SDS011;70637;48.514;14.500;2024-02-26T13:52:32;13.80;;;2.60;;
81160;SDS011;70637;48.514;14.500;2024-02-26T13:54:59;9.65;;;2.17;;
81160;SDS011;70637;48.514;14.500;2024-02-26T13:57:25;11.05;;;2.60;;
81160;SDS011;70637;48.514;14.500;2024-02-26T13:59:51;7.85;;;2.20;;
81160;SDS011;70637;48.514;14.500;2024-02-26T14:02:17;8.55;;;2.40;;
81160;SDS011;70637;48.514;14.500;2024-02-26T14:04:43;6.78;;;1.98;;
81160;SDS011;70637;48.514;14.500;2024-02-26T14:07:10;10.32;;;2.28;;
81160;SDS011;70637;48.514;14.500;2024-02-26T14:09:37;6.57;;;2.10;;
81160;SDS011;70637;48.514;14.500;2024-02-26T14:12:03;9.55;;;2.10;;
81160;SDS011;70637;48.514;14.500;2024-02-26T14:14:29;10.63;;;2.30;;
81160;SDS011;70637;48.514;14.500;2024-02-26T14:16:58;11.05;;;2.20;;
81160;SDS011;70637;48.514;14.500;2024-02-26T14:19:24;4.35;;;2.10;;
81160;SDS011;70637;48.514;14.500;2024-02-26T14:21:51;4.82;;;2.15;;
81160;SDS011;70637;48.514;14.500;2024-02-26T14:24:16;6.55;;;2.00;;
81160;SDS011;70637;48.514;14.500;2024-02-26T14:26:42;8.20;;;2.10;;
81160;SDS011;70637;48.514;14.500;2024-02-26T14:29:08;5.57;;;2.10;;
81160;SDS011;70637;48.514;14.500;2024-02-26T14:31:34;6.10;;;2.28;;
81160;SDS011;70637;48.514;14.500;2024-02-26T14:34:00;6.10;;;2.00;;
81160;SDS011;70637;48.514;14.500;2024-02-26T14:36:26;5.32;;;2.35;;
81160;SDS011;70637;48.514;14.500;2024-02-26T14:38:52;6.30;;;2.15;;
81160;SDS011;70637;48.514;14.500;2024-02-26T14:41:18;3.92;;;2.13;;
81160;SDS011;70637;48.514;14.500;2024-02-26T14:43:44;7.63;;;2.20;;
81160;SDS011;70637;48.514;14.500;2024-02-26T14:46:10;5.57;;;2.28;;
81160;SDS011;70637;48.514;14.500;2024-02-26T14:48:35;5.82;;;2.17;;
81160;SDS011;70637;48.514;14.500;2024-02-26T14:51:01;5.15;;;2.20;;
81160;SDS011;70637;48.514;14.500;2024-02-26T14:53:27;5.28;;;2.35;;
81160;SDS011;70637;48.514;14.500;2024-02-26T14:55:53;6.78;;;2.38;;
81160;SDS011;70637;48.514;14.500;2024-02-26T14:58:19;6.80;;;2.28;;
81160;SDS011;70637;48.514;14.500;2024-02-26T15:00:45;5.90;;;2.10;;
81160;SDS011;70637;48.514;14.500;2024-02-26T15:03:11;4.78;;;2.22;;